Mayoworth, Wyoming
Current Conditions -  °F | °C
As of 11:53 AM on Sunday 23 Nov 2014 (Local Time) from KBYG Reporting Station
Scattered Clouds Scattered Clouds  
Wind Chill: 23°   Ceiling: Unl
Heat Index: 35°   Visibility: 10mi
Dew Point: 19°   Wind: 25mph
Humidity: 52%   Direction: 340°NNW
Pressure: 29.83"   Gusts: 39mph
Location:  43.8063°N, 106.549°W
Report Text: KBYG 231853Z AUTO 34022G34KT 10SM FEW033 SCT070 02/M07 A2983 RMK AO2 PK WND 35038/1804 UPB04E47SNE04 SLP109 P0000 T00171072 $
Loading
Personal Weather Stations






























Interactive Weather Map New forecast layout! Learn more

10-Day Weather Forecast

Advertisements
Track Severe Weather on mobile